createdAt,value
2023-05-10T00:00:01.647Z,94.5
2023-05-10T00:05:01.428Z,115.6
2023-05-10T00:10:00.410Z,144.2
2023-05-10T00:15:00.447Z,82.2
2023-05-10T00:20:00.513Z,110.7
2023-05-10T00:25:00.362Z,87.1
2023-05-10T00:30:00.558Z,115.6
2023-05-10T00:35:00.409Z,101.8
2023-05-10T00:40:00.431Z,111.7
2023-05-10T00:45:00.493Z,113.7
2023-05-10T00:50:00.658Z,119.3
2023-05-10T00:55:00.406Z,120.9
2023-05-10T01:00:00.486Z,114.8
2023-05-10T01:05:00.681Z,125.7
2023-05-10T01:10:00.460Z,146.5
2023-05-10T01:15:00.599Z,121.4
2023-05-10T01:20:00.404Z,104.6
2023-05-10T01:25:00.433Z,139.9
2023-05-10T01:30:22.284Z,110.5
2023-05-10T01:35:00.371Z,127.1
2023-05-10T01:40:00.439Z,108.1
2023-05-10T01:45:00.614Z,123.8
2023-05-10T01:50:00.443Z,102.8
2023-05-10T01:55:00.546Z,140.9
2023-05-10T02:00:00.450Z,128.5
2023-05-10T02:05:00.404Z,119.6
2023-05-10T02:10:00.418Z,117.4
2023-05-10T02:15:00.404Z,138.7
2023-05-10T02:20:00.472Z,152.1
2023-05-10T02:25:00.456Z,121.6
2023-05-10T02:30:00.492Z,121.4
2023-05-10T02:35:00.358Z,111.7
2023-05-10T02:40:00.465Z,115.1
2023-05-10T02:45:00.399Z,101.6
2023-05-10T02:50:00.439Z,101.4
2023-05-10T02:55:00.388Z,149.4
2023-05-10T03:00:00.618Z,114.2
2023-05-10T03:05:01.021Z,125.0
2023-05-10T03:10:00.436Z,151.1
2023-05-10T03:15:00.376Z,138.5
2023-05-10T03:20:00.455Z,131.8
2023-05-10T03:25:00.461Z,142.6
2023-05-10T03:30:00.581Z,128.9
2023-05-10T03:35:00.412Z,107.7
2023-05-10T03:40:00.497Z,115.7
2023-05-10T03:45:00.463Z,120.9
2023-05-10T03:50:00.822Z,108.8
2023-05-10T03:55:00.410Z,112.9
2023-05-10T04:00:00.475Z,127.5
2023-05-10T04:05:00.543Z,125.4
2023-05-10T04:10:00.468Z,120.2
2023-05-10T04:15:00.513Z,120.9
2023-05-10T04:20:00.429Z,144.0
2023-05-10T04:25:00.535Z,150.9
2023-05-10T04:30:00.409Z,151.7
2023-05-10T04:35:00.492Z,156.9
2023-05-10T04:40:00.469Z,121.7
2023-05-10T04:45:00.498Z,131.7
2023-05-10T04:50:00.451Z,148.3
2023-05-10T04:55:00.435Z,139.6
2023-05-10T05:00:00.587Z,148.5
2023-05-10T05:05:00.539Z,135.9
2023-05-10T05:10:00.495Z,157.8
2023-05-10T05:15:00.428Z,140.2
2023-05-10T05:20:00.507Z,149.5
2023-05-10T05:25:00.398Z,159.5
2023-05-10T05:30:00.463Z,153.8
2023-05-10T05:35:00.452Z,155.8
2023-05-10T05:40:00.442Z,132.8
2023-05-10T05:45:00.497Z,159.6
2023-05-10T05:50:00.400Z,145.2
2023-05-10T05:55:00.408Z,149.8
2023-05-10T06:00:00.499Z,129.8
2023-05-10T06:05:00.453Z,157.2
2023-05-10T06:10:00.443Z,145.8
2023-05-10T06:15:00.462Z,152.4
2023-05-10T06:20:00.455Z,147.6
2023-05-10T06:25:00.505Z,157.3
2023-05-10T06:30:13.955Z,147.5
2023-05-10T06:35:00.400Z,151.7
2023-05-10T06:40:00.589Z,149.5
2023-05-10T06:45:00.426Z,160.0
2023-05-10T06:50:00.557Z,147.9
2023-05-10T06:55:00.527Z,146.5
2023-05-10T07:00:00.663Z,151.8
2023-05-10T07:05:03.884Z,157.4
2023-05-10T07:10:00.522Z,158.3
2023-05-10T07:15:00.920Z,153.4
2023-05-10T07:20:00.525Z,161.3
2023-05-10T07:25:00.552Z,163.1
2023-05-10T07:30:00.545Z,154.5
2023-05-10T07:35:00.421Z,152.5
2023-05-10T07:40:00.647Z,153.2
2023-05-10T07:45:00.612Z,155.0
2023-05-10T07:50:00.516Z,151.6
2023-05-10T07:55:00.461Z,152.6
2023-05-10T08:00:00.566Z,150.0
2023-05-10T08:05:00.543Z,147.5
2023-05-10T08:10:00.571Z,121.2
2023-05-10T08:15:00.570Z,132.0
2023-05-10T08:20:00.705Z,135.0
2023-05-10T08:25:00.496Z,154.4
2023-05-10T08:30:00.537Z,152.3
2023-05-10T08:35:00.468Z,154.5
2023-05-10T08:40:00.556Z,118.5
2023-05-10T08:45:00.506Z,142.2
2023-05-10T08:50:00.462Z,165.2
2023-05-10T08:55:00.592Z,134.7
2023-05-10T09:00:00.448Z,146.4
2023-05-10T09:05:01.029Z,97.4
2023-05-10T09:10:00.617Z,160.0
2023-05-10T09:15:00.456Z,160.9
2023-05-10T09:20:00.635Z,159.8
2023-05-10T09:25:00.466Z,159.6
2023-05-10T09:30:00.556Z,142.5
2023-05-10T09:35:00.443Z,160.3
2023-05-10T09:40:00.471Z,154.1
2023-05-10T09:45:00.547Z,153.8
2023-05-10T09:50:00.621Z,152.2
2023-05-10T09:55:00.638Z,155.9
2023-05-10T10:00:00.627Z,164.7
2023-05-10T10:05:00.688Z,133.4
2023-05-10T10:10:00.455Z,137.0
2023-05-10T10:15:00.543Z,129.5
2023-05-10T10:20:00.570Z,146.7
2023-05-10T10:25:00.563Z,156.3
2023-05-10T10:30:00.567Z,162.4
2023-05-10T10:35:00.557Z,169.0
2023-05-10T10:40:00.843Z,174.8
2023-05-10T10:45:00.716Z,165.5
2023-05-10T10:50:00.460Z,165.9
2023-05-10T10:55:00.735Z,165.8
2023-05-10T11:00:00.475Z,172.6
2023-05-10T11:05:00.523Z,177.4
2023-05-10T11:10:00.576Z,168.9
2023-05-10T11:15:00.640Z,159.9
2023-05-10T11:20:00.468Z,162.0
2023-05-10T11:25:00.556Z,165.0
2023-05-10T11:30:00.465Z,178.4
2023-05-10T11:35:00.408Z,163.1
2023-05-10T11:40:00.601Z,159.2
2023-05-10T11:45:00.457Z,174.5
2023-05-10T11:50:00.641Z,173.9
2023-05-10T11:55:00.665Z,173.3
2023-05-10T12:00:00.739Z,167.7
2023-05-10T12:05:01.262Z,190.5
2023-05-10T12:10:00.529Z,191.1
2023-05-10T12:15:00.566Z,173.9
2023-05-10T12:20:00.629Z,168.4
2023-05-10T12:25:00.854Z,166.7
2023-05-10T12:30:00.494Z,171.8
2023-05-10T12:35:00.617Z,165.3
2023-05-10T12:40:00.669Z,184.7
2023-05-10T12:45:00.735Z,191.1
2023-05-10T12:50:00.528Z,193.4
2023-05-10T12:55:00.565Z,183.8
2023-05-10T13:00:00.712Z,180.7
2023-05-10T13:05:00.747Z,154.0
2023-05-10T13:10:00.666Z,132.6
2023-05-10T13:15:00.507Z,180.5
2023-05-10T13:20:00.566Z,163.8
2023-05-10T13:25:00.738Z,158.9
2023-05-10T13:30:00.679Z,192.4
2023-05-10T13:35:00.458Z,174.6
2023-05-10T13:40:00.813Z,154.7
2023-05-10T13:45:00.469Z,187.8
2023-05-10T13:50:00.523Z,160.9
2023-05-10T13:55:00.444Z,168.6
2023-05-10T14:00:00.808Z,161.4
2023-05-10T14:05:00.400Z,168.0
2023-05-10T14:10:00.502Z,184.9
2023-05-10T14:15:00.530Z,191.4
2023-05-10T14:20:00.544Z,183.5
2023-05-10T14:25:00.414Z,170.9
2023-05-10T14:30:00.594Z,168.1
2023-05-10T14:35:00.467Z,171.1
2023-05-10T14:40:00.541Z,184.5
2023-05-10T14:45:00.556Z,171.9
2023-05-10T14:50:00.465Z,167.6
2023-05-10T14:55:00.554Z,177.0
2023-05-10T15:00:02.122Z,164.1
2023-05-10T15:05:02.156Z,166.0
2023-05-10T15:10:00.578Z,170.4
2023-05-10T15:15:00.630Z,152.0
2023-05-10T15:20:00.621Z,178.1
2023-05-10T15:25:00.471Z,184.8
2023-05-10T15:30:00.477Z,160.8
2023-05-10T15:35:00.547Z,165.6
2023-05-10T15:40:00.628Z,158.4
2023-05-10T15:45:00.868Z,162.3
2023-05-10T15:50:00.781Z,172.5
2023-05-10T15:55:00.589Z,184.5
2023-05-10T16:00:00.653Z,176.7
2023-05-10T16:05:00.510Z,195.3
2023-05-10T16:10:00.668Z,196.8
2023-05-10T16:15:00.511Z,212.1
2023-05-10T16:20:00.693Z,236.6
2023-05-10T16:25:00.596Z,219.3
2023-05-10T16:30:00.686Z,218.8
2023-05-10T16:35:00.560Z,217.3
2023-05-10T16:40:00.979Z,192.1
2023-05-10T16:45:00.566Z,236.6
2023-05-10T16:50:00.928Z,231.8
2023-05-10T16:55:00.651Z,220.5
2023-05-10T17:00:01.589Z,228.9
2023-05-10T17:05:00.609Z,208.6
2023-05-10T17:10:00.829Z,235.0
2023-05-10T17:15:00.835Z,233.1
2023-05-10T17:20:01.006Z,243.6
2023-05-10T17:25:00.610Z,226.5
2023-05-10T17:30:00.685Z,245.6
2023-05-10T17:35:00.465Z,250.2
2023-05-10T17:40:00.980Z,232.6
2023-05-10T17:45:00.577Z,260.3
2023-05-10T17:50:00.545Z,256.2
2023-05-10T17:55:00.629Z,203.4
2023-05-10T18:00:00.508Z,270.9
2023-05-10T18:05:01.139Z,267.2
2023-05-10T18:10:00.636Z,249.4
2023-05-10T18:15:00.603Z,243.2
2023-05-10T18:30:00.591Z,207.1
2023-05-10T18:35:00.605Z,224.1
2023-05-10T18:40:00.549Z,246.8
2023-05-10T18:45:00.559Z,247.5
2023-05-10T18:50:00.529Z,247.5
2023-05-10T18:55:00.693Z,283.9
2023-05-10T19:00:00.499Z,41.9
2023-05-10T19:05:00.956Z,45.5
2023-05-10T19:10:00.472Z,45.0
2023-05-10T19:15:00.493Z,45.0
2023-05-10T19:20:02.086Z,45.0
2023-05-10T19:25:00.586Z,45.0
2023-05-10T19:30:00.561Z,45.0
2023-05-10T19:35:00.798Z,45.0
2023-05-10T19:40:00.508Z,45.0
2023-05-10T19:45:00.614Z,45.0
2023-05-10T19:50:00.747Z,45.0
2023-05-10T19:55:00.494Z,45.0
2023-05-10T20:00:00.523Z,45.0
2023-05-10T20:05:00.454Z,45.0
2023-05-10T20:10:00.626Z,18.5
2023-05-10T20:15:00.462Z,0.1
2023-05-10T20:20:00.541Z,316.2
2023-05-10T20:25:00.508Z,206.3
2023-05-10T20:30:00.498Z,202.5
2023-05-10T20:35:00.494Z,202.4
2023-05-10T20:40:00.510Z,202.5
2023-05-10T20:45:00.738Z,202.5
2023-05-10T20:50:00.525Z,202.5
2023-05-10T20:55:00.424Z,214.9
2023-05-10T21:00:00.524Z,202.6
2023-05-10T21:05:00.819Z,203.7
2023-05-10T21:10:00.500Z,202.5
2023-05-10T21:15:00.495Z,202.5
2023-05-10T21:20:00.592Z,202.5
2023-05-10T21:25:00.473Z,196.0
2023-05-10T21:30:00.510Z,199.9
2023-05-10T21:35:00.576Z,202.5
2023-05-10T21:40:00.499Z,202.5
2023-05-10T21:45:00.640Z,202.5
2023-05-10T21:50:00.565Z,202.5
2023-05-10T21:55:00.506Z,202.5
2023-05-10T22:00:00.516Z,202.5
2023-05-10T22:05:00.503Z,202.5
2023-05-10T22:10:00.516Z,202.5
2023-05-10T22:15:11.343Z,202.5
2023-05-10T22:20:00.462Z,202.5
2023-05-10T22:25:00.494Z,202.5
2023-05-10T22:30:00.523Z,202.5
2023-05-10T22:35:00.499Z,202.5
2023-05-10T22:40:00.526Z,202.5
2023-05-10T22:45:00.499Z,202.5
2023-05-10T22:50:00.473Z,202.5
2023-05-10T22:55:00.715Z,202.5
2023-05-10T23:00:00.498Z,202.5
2023-05-10T23:05:00.756Z,202.5
2023-05-10T23:10:00.626Z,202.5
2023-05-10T23:15:00.638Z,202.5
2023-05-10T23:20:00.544Z,202.5
2023-05-10T23:25:00.429Z,202.5
2023-05-10T23:30:00.488Z,202.5
2023-05-10T23:35:00.421Z,202.5
2023-05-10T23:40:00.495Z,202.5
2023-05-10T23:45:00.519Z,202.5
2023-05-10T23:50:00.572Z,202.5
2023-05-10T23:55:00.566Z,202.5
